createdAt,value
2023-01-11T00:00:49.369Z,22.20
2023-01-11T00:03:17.750Z,21.40
2023-01-11T00:05:45.705Z,21.13
2023-01-11T00:08:13.295Z,20.70
2023-01-11T00:10:40.849Z,21.60
2023-01-11T00:13:08.457Z,20.30
2023-01-11T00:15:38.447Z,20.17
2023-01-11T00:18:05.997Z,19.43
2023-01-11T00:20:33.404Z,18.60
2023-01-11T00:23:00.888Z,18.00
2023-01-11T00:25:28.426Z,17.60
2023-01-11T00:27:56.242Z,18.70
2023-01-11T00:30:23.986Z,17.17
2023-01-11T00:32:55.592Z,15.30
2023-01-11T00:35:22.948Z,16.40
2023-01-11T00:37:50.328Z,17.70
2023-01-11T00:40:17.923Z,15.43
2023-01-11T00:43:05.251Z,15.53
2023-01-11T00:45:52.594Z,15.43
2023-01-11T00:48:20.107Z,15.87
2023-01-11T00:50:47.585Z,15.13
2023-01-11T00:53:15.115Z,15.67
2023-01-11T00:55:42.896Z,17.00
2023-01-11T00:58:10.277Z,17.17
2023-01-11T01:00:37.711Z,16.17
2023-01-11T01:03:05.159Z,14.77
2023-01-11T01:05:33.591Z,15.80
2023-01-11T01:08:01.069Z,15.83
2023-01-11T01:10:29.010Z,16.83
2023-01-11T01:13:16.264Z,14.67
2023-01-11T01:15:43.903Z,14.07
2023-01-11T01:18:11.245Z,14.10
2023-01-11T01:20:38.657Z,13.70
2023-01-11T01:23:06.123Z,14.33
2023-01-11T01:25:33.849Z,14.37
2023-01-11T01:28:01.240Z,13.93
2023-01-11T01:30:28.675Z,14.70
2023-01-11T01:32:56.039Z,14.67
2023-01-11T01:35:23.476Z,14.63
2023-01-11T01:37:50.907Z,14.73
2023-01-11T01:40:18.427Z,16.07
2023-01-11T01:42:45.818Z,15.37
2023-01-11T01:45:29.186Z,14.90
2023-01-11T01:48:16.458Z,14.73
2023-01-11T01:51:00.694Z,14.87
2023-01-11T01:53:31.843Z,15.00
2023-01-11T01:56:00.994Z,14.80
2023-01-11T01:58:31.379Z,14.43
2023-01-11T02:01:19.436Z,15.27
2023-01-11T02:03:47.960Z,14.77
2023-01-11T02:06:15.382Z,15.23
2023-01-11T02:08:45.459Z,15.17
2023-01-11T02:11:35.475Z,15.50
2023-01-11T02:14:05.118Z,14.60
2023-01-11T02:16:32.809Z,14.77
2023-01-11T02:19:00.602Z,16.47
2023-01-11T02:21:32.714Z,16.03
2023-01-11T02:24:20.017Z,15.60
2023-01-11T02:27:01.780Z,16.23
2023-01-11T02:29:49.075Z,17.80
2023-01-11T02:32:36.338Z,17.10
2023-01-11T02:35:23.564Z,17.77
2023-01-11T03:37:07.818Z,15.27
2023-01-11T03:39:38.236Z,15.43
2023-01-11T03:42:07.992Z,16.20
2023-01-11T03:44:39.756Z,15.63
2023-01-11T03:47:09.178Z,16.03
2023-01-11T03:49:39.510Z,17.00
2023-01-11T03:52:09.654Z,17.13
2023-01-11T03:54:37.572Z,17.07
2023-01-11T03:57:24.951Z,17.07
2023-01-11T03:59:52.561Z,17.17
2023-01-11T04:02:21.298Z,17.43
2023-01-11T04:04:49.079Z,15.90
2023-01-11T04:07:16.590Z,15.43
2023-01-11T04:09:44.196Z,15.40
2023-01-11T04:12:11.763Z,15.17
2023-01-11T04:14:39.221Z,14.13
2023-01-11T04:17:06.600Z,13.57
2023-01-11T04:19:34.108Z,12.47
2023-01-11T04:22:01.525Z,12.63
2023-01-11T04:24:28.961Z,12.63
2023-01-11T04:26:56.280Z,13.27
2023-01-11T04:29:23.655Z,12.30
2023-01-11T04:32:14.315Z,13.30
2023-01-11T04:34:41.789Z,12.37
2023-01-11T04:37:09.707Z,12.10
2023-01-11T04:39:37.187Z,13.47
2023-01-11T04:42:20.684Z,13.30
2023-01-11T04:44:49.956Z,11.53
2023-01-11T04:47:18.103Z,12.20
2023-01-11T04:49:46.199Z,12.57
2023-01-11T04:52:14.509Z,12.43
2023-01-11T04:54:42.177Z,12.70
2023-01-11T04:57:12.884Z,12.23
2023-01-11T04:59:40.468Z,12.63
2023-01-11T05:02:07.890Z,13.20
2023-01-11T05:04:35.328Z,12.13
2023-01-11T05:07:02.998Z,12.20
2023-01-11T05:09:30.612Z,13.37
2023-01-11T05:11:58.066Z,11.87
2023-01-11T05:14:25.547Z,13.50
2023-01-11T05:16:53.164Z,13.07
2023-01-11T05:19:20.895Z,12.63
2023-01-11T05:21:48.355Z,13.30
2023-01-11T05:24:16.781Z,13.27
2023-01-11T05:26:45.107Z,12.97
2023-01-11T05:29:16.492Z,12.33
2023-01-11T05:31:44.077Z,11.90
2023-01-11T05:34:13.171Z,12.00
2023-01-11T05:36:40.900Z,10.80
2023-01-11T05:39:08.436Z,12.77
2023-01-11T05:41:36.412Z,17.33
2023-01-11T05:44:23.963Z,11.63
2023-01-11T05:46:51.452Z,13.77
2023-01-11T05:49:19.437Z,13.07
2023-01-11T05:51:46.864Z,13.63
2023-01-11T05:54:15.388Z,14.17
2023-01-11T05:56:43.292Z,13.77
2023-01-11T05:59:11.018Z,12.50
2023-01-11T06:01:38.676Z,12.43
2023-01-11T06:04:06.628Z,11.83
2023-01-11T06:06:34.161Z,10.97
2023-01-11T06:09:01.718Z,11.37
2023-01-11T06:11:29.171Z,10.33
2023-01-11T06:13:56.667Z,9.47
2023-01-11T06:16:24.386Z,10.43
2023-01-11T06:18:52.741Z,10.30
2023-01-11T06:21:20.360Z,9.60
2023-01-11T06:23:50.933Z,10.03
2023-01-11T06:26:20.319Z,9.73
2023-01-11T06:28:47.824Z,10.07
2023-01-11T06:31:17.420Z,9.87
2023-01-11T06:33:46.114Z,9.93
2023-01-11T06:36:14.228Z,9.53
2023-01-11T06:38:44.775Z,9.80
2023-01-11T06:41:12.642Z,9.83
2023-01-11T06:43:42.226Z,9.27
2023-01-11T06:46:12.260Z,9.00
2023-01-11T06:48:39.692Z,8.40
2023-01-11T06:51:07.191Z,8.20
2023-01-11T06:53:34.694Z,7.37
2023-01-11T06:56:02.182Z,8.67
2023-01-11T06:58:29.874Z,8.03
2023-01-11T07:00:58.204Z,9.13
2023-01-11T07:03:26.738Z,7.67
2023-01-11T07:05:56.759Z,7.93
2023-01-11T07:08:26.074Z,7.57
2023-01-11T07:10:53.785Z,7.87
2023-01-11T07:13:21.321Z,7.00
2023-01-11T07:15:50.815Z,7.17
2023-01-11T07:18:19.390Z,7.90
2023-01-11T07:20:49.146Z,7.30
2023-01-11T07:23:16.623Z,7.63
2023-01-11T07:25:44.097Z,8.20
2023-01-11T07:28:12.824Z,7.80
2023-01-11T07:30:59.976Z,7.87
2023-01-11T07:33:30.639Z,8.07
2023-01-11T07:36:00.899Z,7.90
2023-01-11T07:38:31.400Z,7.33
2023-01-11T07:40:58.934Z,8.90
2023-01-11T07:43:27.010Z,6.83
2023-01-11T07:45:54.573Z,8.63
2023-01-11T07:48:26.513Z,8.03
2023-01-11T07:50:54.289Z,7.10
2023-01-11T07:53:22.021Z,7.60
2023-01-11T07:55:49.508Z,7.67
2023-01-11T07:58:17.384Z,7.57
2023-01-11T08:00:46.187Z,7.57
2023-01-11T08:03:14.201Z,6.57
2023-01-11T08:05:41.802Z,7.80
2023-01-11T08:08:09.477Z,7.67
2023-01-11T08:10:36.922Z,6.63
2023-01-11T08:13:24.388Z,6.20
2023-01-11T08:15:52.027Z,7.73
2023-01-11T08:18:20.076Z,7.27
2023-01-11T08:20:47.791Z,6.60
2023-01-11T08:23:15.613Z,7.03
2023-01-11T08:25:43.369Z,7.40
2023-01-11T08:28:11.464Z,6.43
2023-01-11T08:30:39.238Z,6.37
2023-01-11T08:33:06.761Z,6.63
2023-01-11T08:35:38.512Z,7.37
2023-01-11T08:38:05.961Z,6.27
2023-01-11T08:40:33.413Z,7.00
2023-01-11T08:43:03.968Z,6.70
2023-01-11T08:45:32.538Z,6.83
2023-01-11T08:48:00.313Z,7.03
2023-01-11T08:50:27.999Z,5.90
2023-01-11T08:52:57.649Z,6.20
2023-01-11T08:55:25.253Z,5.83
2023-01-11T08:57:52.669Z,6.27
2023-01-11T09:00:20.820Z,6.80
2023-01-11T09:02:48.345Z,5.50
2023-01-11T09:05:18.172Z,8.17
2023-01-11T09:07:45.895Z,6.70
2023-01-11T09:10:13.802Z,6.53
2023-01-11T09:12:41.540Z,6.40
2023-01-11T09:15:09.850Z,6.30
2023-01-11T09:17:37.308Z,5.40
2023-01-11T09:20:05.202Z,6.00
2023-01-11T09:22:33.879Z,6.57
2023-01-11T09:25:01.406Z,7.93
2023-01-11T09:27:29.011Z,7.37
2023-01-11T09:29:56.456Z,5.50
2023-01-11T09:32:23.916Z,6.57
2023-01-11T09:34:54.229Z,6.77
2023-01-11T09:37:22.995Z,7.43
2023-01-11T09:39:51.608Z,6.50
2023-01-11T09:42:39.799Z,5.20
2023-01-11T09:45:28.704Z,5.87
2023-01-11T09:48:03.913Z,7.00
2023-01-11T09:50:33.283Z,5.00
2023-01-11T09:53:04.786Z,6.10
2023-01-11T09:55:38.119Z,5.93
2023-01-11T09:58:28.470Z,5.37
2023-01-11T10:01:15.882Z,6.23
2023-01-11T10:03:54.530Z,5.47
2023-01-11T10:06:42.495Z,5.57
2023-01-11T10:18:25.680Z,5.17
2023-01-11T10:19:19.668Z,6.13
2023-01-11T10:21:50.673Z,5.10
2023-01-11T10:24:25.127Z,5.00
2023-01-11T10:26:56.964Z,5.05
2023-01-11T10:29:40.412Z,5.67
2023-01-11T10:32:34.164Z,5.97
2023-01-11T10:35:26.119Z,5.40
2023-01-11T10:38:10.458Z,5.10
2023-01-11T10:41:03.417Z,4.93
2023-01-11T10:43:33.103Z,5.80
2023-01-11T10:46:02.843Z,5.67
2023-01-11T10:48:33.461Z,5.83
2023-01-11T10:51:06.194Z,5.73
2023-01-11T10:53:36.829Z,5.43
2023-01-11T10:56:24.300Z,5.60
2023-01-11T10:59:13.455Z,6.10
2023-01-11T11:02:00.702Z,6.37
2023-01-11T11:04:33.671Z,5.93
2023-01-11T11:07:20.934Z,5.50
2023-01-11T11:09:56.427Z,5.50
2023-01-11T11:15:12.753Z,6.60
2023-01-11T11:17:41.364Z,6.13
2023-01-11T11:20:18.372Z,6.03
2023-01-11T11:22:45.848Z,6.23
2023-01-11T11:25:17.199Z,6.10
2023-01-11T11:27:48.644Z,6.70
2023-01-11T11:30:28.384Z,6.73
2023-01-11T11:32:59.054Z,6.70
2023-01-11T11:35:46.649Z,7.53
2023-01-11T11:38:30.901Z,6.20
2023-01-11T11:40:59.472Z,7.33
2023-01-11T11:43:28.515Z,8.23
2023-01-11T11:46:19.476Z,6.40
2023-01-11T11:49:07.425Z,6.40
2023-01-11T11:51:34.953Z,5.80
2023-01-11T11:54:04.956Z,5.83
2023-01-11T11:56:34.634Z,6.53
2023-01-11T11:59:08.572Z,7.47
2023-01-11T12:01:38.074Z,6.37
2023-01-11T12:04:12.939Z,7.63
2023-01-11T12:06:41.193Z,7.25
2023-01-11T12:09:13.419Z,6.63
2023-01-11T12:11:42.399Z,7.70
2023-01-11T12:14:29.745Z,6.07
2023-01-11T12:16:58.158Z,6.20
2023-01-11T12:19:27.236Z,6.53
2023-01-11T12:21:56.544Z,6.73
2023-01-11T12:24:27.127Z,6.97
2023-01-11T12:27:15.595Z,7.37
2023-01-11T12:30:06.153Z,8.33
2023-01-11T12:32:53.451Z,6.67
2023-01-11T12:35:40.787Z,8.10
2023-01-11T12:38:28.111Z,6.87
2023-01-11T12:41:15.441Z,6.30
2023-01-11T12:44:02.746Z,7.10
2023-01-11T12:46:50.096Z,8.17
2023-01-11T12:49:24.661Z,6.70
2023-01-11T12:52:04.409Z,6.80
2023-01-11T12:54:48.089Z,7.37
2023-01-11T12:57:35.566Z,6.80
2023-01-11T13:00:22.938Z,6.57
2023-01-11T13:03:08.122Z,6.30
2023-01-11T13:05:42.721Z,5.82
2023-01-11T13:08:29.962Z,6.18
2023-01-11T13:11:10.628Z,6.73
2023-01-11T13:13:57.859Z,6.37
2023-01-11T13:16:29.892Z,6.47
2023-01-11T13:19:17.169Z,7.70
2023-01-11T13:21:53.436Z,6.63
2023-01-11T13:24:26.691Z,6.03
2023-01-11T13:26:58.949Z,5.30
2023-01-11T13:29:28.890Z,5.60
2023-01-11T13:31:58.517Z,6.80
2023-01-11T13:34:47.328Z,7.33
2023-01-11T13:37:34.832Z,6.87
2023-01-11T13:40:22.087Z,5.97
2023-01-11T13:42:52.217Z,6.63
2023-01-11T13:45:22.807Z,7.47
2023-01-11T13:47:54.927Z,7.87
2023-01-11T13:50:43.048Z,7.63
2023-01-11T13:53:30.372Z,6.63
2023-01-11T13:56:19.720Z,6.87
2023-01-11T13:59:06.475Z,6.43
2023-01-11T14:01:53.963Z,6.77
2023-01-11T14:04:35.063Z,7.27
2023-01-11T14:07:15.283Z,6.60
2023-01-11T14:10:02.665Z,7.00
2023-01-11T14:15:11.965Z,6.37
2023-01-11T14:16:06.122Z,7.63
2023-01-11T14:21:55.183Z,7.33
2023-01-11T14:24:26.182Z,8.07
2023-01-11T14:27:18.562Z,7.13
2023-01-11T14:30:01.647Z,7.93
2023-01-11T14:33:11.007Z,7.13
2023-01-11T14:36:10.818Z,8.20
2023-01-11T14:39:03.829Z,7.07
2023-01-11T14:42:03.716Z,9.23
2023-01-11T14:44:40.638Z,7.37
2023-01-11T14:47:45.644Z,7.83
2023-01-11T14:50:29.489Z,8.60
2023-01-11T14:53:00.179Z,7.40
2023-01-11T14:55:49.466Z,7.43
2023-01-11T14:58:25.883Z,8.20
2023-01-11T15:01:15.945Z,7.67
2023-01-11T15:03:46.526Z,8.07
2023-01-11T15:06:20.624Z,8.33
2023-01-11T15:09:01.488Z,8.07
2023-01-11T15:11:47.391Z,8.23
2023-01-11T15:17:19.143Z,7.60
2023-01-11T15:19:52.679Z,8.57
2023-01-11T15:22:24.607Z,7.40
2023-01-11T15:24:57.182Z,6.97
2023-01-11T15:27:27.112Z,8.90
2023-01-11T15:29:56.267Z,8.67
2023-01-11T15:32:44.168Z,9.40
2023-01-11T15:35:34.894Z,8.07
2023-01-11T15:38:08.122Z,7.97
2023-01-11T15:40:44.329Z,8.73
2023-01-11T15:43:34.016Z,8.97
2023-01-11T15:46:38.476Z,9.13
2023-01-11T15:52:21.403Z,8.97
2023-01-11T15:55:20.578Z,8.43
2023-01-11T15:58:12.684Z,9.00
2023-01-11T16:01:01.498Z,6.77
2023-01-11T16:04:03.899Z,8.43
2023-01-11T16:06:51.265Z,8.30
2023-01-11T16:09:38.595Z,8.87
2023-01-11T16:12:25.968Z,8.20
2023-01-11T16:15:13.666Z,8.03
2023-01-11T16:17:42.674Z,8.73
2023-01-11T16:20:14.638Z,8.50
2023-01-11T16:22:47.841Z,9.13
2023-01-11T16:25:22.500Z,8.17
2023-01-11T16:27:56.387Z,8.03
2023-01-11T16:30:27.778Z,8.80
2023-01-11T16:33:16.305Z,8.17
2023-01-11T16:35:45.161Z,9.40
2023-01-11T16:38:17.564Z,9.00
2023-01-11T16:40:50.708Z,7.60
2023-01-11T16:43:38.503Z,7.57
2023-01-11T16:46:06.372Z,8.70
2023-01-11T16:48:37.791Z,7.87
2023-01-11T16:51:18.397Z,9.47
2023-01-11T16:53:48.760Z,9.20
2023-01-11T16:56:19.455Z,9.03
2023-01-11T16:59:06.961Z,9.77
2023-01-11T17:01:54.832Z,8.73
2023-01-11T17:04:40.468Z,8.27
2023-01-11T17:07:22.147Z,9.18
2023-01-11T17:09:50.802Z,8.67
2023-01-11T17:12:22.239Z,9.07
2023-01-11T17:14:57.651Z,8.40
2023-01-11T17:19:57.638Z,7.40
2023-01-11T17:22:29.183Z,9.90
2023-01-11T17:25:00.155Z,9.10
2023-01-11T17:27:34.096Z,9.43
2023-01-11T17:30:03.311Z,10.27
2023-01-11T17:32:36.102Z,10.10
2023-01-11T17:35:05.839Z,9.20
2023-01-11T17:37:34.273Z,8.97
2023-01-11T17:40:02.317Z,9.70
2023-01-11T17:42:52.385Z,9.87
2023-01-11T17:45:22.888Z,10.33
2023-01-11T17:47:56.525Z,10.00
2023-01-11T17:50:27.986Z,10.53
2023-01-11T17:53:04.743Z,11.63
2023-01-11T17:55:32.840Z,9.13
2023-01-11T17:58:22.288Z,11.13
2023-01-11T18:01:10.535Z,9.53
2023-01-11T18:03:58.409Z,11.07
2023-01-11T18:06:49.184Z,11.03
2023-01-11T18:09:37.779Z,11.60
2023-01-11T18:12:33.812Z,12.07
2023-01-11T18:15:06.034Z,11.60
2023-01-11T18:17:57.306Z,12.77
2023-01-11T18:20:45.108Z,10.70
2023-01-11T18:23:36.149Z,11.63
2023-01-11T18:26:30.250Z,11.23
2023-01-11T18:28:59.101Z,10.90
2023-01-11T18:31:31.351Z,13.13
2023-01-11T18:34:08.791Z,13.77
2023-01-11T18:36:44.697Z,13.77
2023-01-11T18:39:15.024Z,13.47
2023-01-11T18:42:03.863Z,13.07
2023-01-11T18:44:38.922Z,12.33
2023-01-11T18:47:24.712Z,14.17
2023-01-11T18:49:56.402Z,14.20
2023-01-11T18:52:55.792Z,13.57
2023-01-11T18:55:23.785Z,14.33
2023-01-11T18:57:52.146Z,14.43
2023-01-11T19:00:20.636Z,15.43
2023-01-11T19:02:48.634Z,15.10
2023-01-11T19:05:18.767Z,17.33
2023-01-11T19:07:46.769Z,15.60
2023-01-11T19:10:15.524Z,15.73
2023-01-11T19:12:43.700Z,15.03
2023-01-11T19:15:12.150Z,16.00
2023-01-11T19:17:39.852Z,15.27
2023-01-11T19:20:09.575Z,14.70
2023-01-11T19:22:38.529Z,16.60
2023-01-11T19:25:08.342Z,16.17
2023-01-11T19:27:37.556Z,14.50
2023-01-11T19:30:06.475Z,16.50
2023-01-11T19:32:34.101Z,16.50
2023-01-11T19:35:01.905Z,18.13
2023-01-11T19:37:30.683Z,15.40
2023-01-11T19:40:00.246Z,17.83
2023-01-11T19:42:28.245Z,15.73
2023-01-11T19:44:57.172Z,16.27
2023-01-11T19:47:24.676Z,17.73
2023-01-11T19:49:56.542Z,17.27
2023-01-11T19:52:24.168Z,17.13
2023-01-11T19:54:53.506Z,16.43
2023-01-11T19:57:21.469Z,17.10
2023-01-11T19:59:49.679Z,17.60
2023-01-11T20:02:18.196Z,14.57
2023-01-11T20:04:46.034Z,15.70
2023-01-11T20:07:14.337Z,14.33
2023-01-11T20:09:42.212Z,14.97
2023-01-11T20:12:12.211Z,15.30
2023-01-11T20:14:41.008Z,14.57
2023-01-11T20:17:08.915Z,13.20
2023-01-11T20:19:36.571Z,15.43
2023-01-11T20:22:04.346Z,14.10
2023-01-11T20:24:32.302Z,13.93
2023-01-11T20:27:01.323Z,14.27
2023-01-11T20:29:30.129Z,14.97
2023-01-11T20:32:13.436Z,14.23
2023-01-11T20:34:52.853Z,14.27
2023-01-11T20:37:23.812Z,13.52
2023-01-11T20:39:51.961Z,13.67
2023-01-11T20:42:29.256Z,13.70
2023-01-11T20:45:09.720Z,13.77
2023-01-11T20:47:39.566Z,11.70
2023-01-11T20:50:09.081Z,12.10
2023-01-11T20:52:43.969Z,12.90
2023-01-11T20:55:18.947Z,12.17
2023-01-11T20:57:54.367Z,11.80
2023-01-11T21:00:30.333Z,13.97
2023-01-11T21:02:58.222Z,12.90
2023-01-11T21:05:28.424Z,13.00
2023-01-11T21:07:56.457Z,11.73
2023-01-11T21:10:24.598Z,12.70
2023-01-11T21:15:26.181Z,12.20
2023-01-11T21:17:54.129Z,12.97
2023-01-11T21:20:28.658Z,11.23
2023-01-11T21:22:58.251Z,12.60
2023-01-11T21:25:26.091Z,11.53
2023-01-11T21:27:55.051Z,11.23
2023-01-11T21:30:27.787Z,11.43
2023-01-11T21:32:59.777Z,11.43
2023-01-11T21:35:42.683Z,11.70
2023-01-11T21:40:58.259Z,12.33
2023-01-11T21:43:42.783Z,11.90
2023-01-11T21:46:23.434Z,12.60
2023-01-11T21:48:56.229Z,11.53
2023-01-11T21:51:33.569Z,10.30
2023-01-11T21:54:08.530Z,12.70
2023-01-11T21:56:37.239Z,13.15
2023-01-11T21:59:05.572Z,12.17
2023-01-11T22:01:33.976Z,12.33
2023-01-11T22:04:13.010Z,12.23
2023-01-11T22:06:42.641Z,11.47
2023-01-11T22:09:13.669Z,12.40
2023-01-11T22:15:15.950Z,13.10
2023-01-11T22:17:49.311Z,12.30
2023-01-11T22:20:18.090Z,14.30
2023-01-11T22:22:58.727Z,11.77
2023-01-11T22:25:30.958Z,12.63
2023-01-11T22:27:59.667Z,13.40
2023-01-11T22:30:33.389Z,13.63
2023-01-11T22:33:04.525Z,13.17
2023-01-11T22:35:34.839Z,13.73
2023-01-11T22:38:08.272Z,13.00
2023-01-11T22:40:45.055Z,13.00
2023-01-11T22:43:13.598Z,12.60
2023-01-11T22:45:41.795Z,11.90
2023-01-11T22:48:09.642Z,13.33
2023-01-11T22:50:38.944Z,12.67
2023-01-11T22:53:06.482Z,13.23
2023-01-11T22:55:36.834Z,13.07
2023-01-11T22:58:04.356Z,13.13
2023-01-11T23:00:34.173Z,13.03
2023-01-11T23:03:01.724Z,12.93
2023-01-11T23:05:29.297Z,12.47
2023-01-11T23:07:57.128Z,14.07
2023-01-11T23:10:24.585Z,13.83
2023-01-11T23:13:11.966Z,13.33
2023-01-11T23:15:40.953Z,13.70
2023-01-11T23:18:10.733Z,12.37
2023-01-11T23:20:38.586Z,12.70
2023-01-11T23:23:06.035Z,13.30
2023-01-11T23:25:33.450Z,13.93
2023-01-11T23:28:01.919Z,14.03
2023-01-11T23:30:29.439Z,14.50
2023-01-11T23:32:56.862Z,13.93
2023-01-11T23:35:24.455Z,13.60
2023-01-11T23:38:06.393Z,13.23
2023-01-11T23:40:56.837Z,11.90
2023-01-11T23:43:24.217Z,13.07
2023-01-11T23:46:11.828Z,13.03
2023-01-11T23:48:39.300Z,12.57
2023-01-11T23:51:06.990Z,11.37
2023-01-11T23:53:37.096Z,12.67
2023-01-11T23:56:08.012Z,11.70
2023-01-11T23:58:38.253Z,12.23
